Ashippun, Wisconsin
Current Conditions -  °F | °C
As of 9:55 PM on Saturday 25 Oct 2014 (Local Time) from KRYV Reporting Station
Clear Clear  
Wind Chill: 10°   Ceiling: Unl
Heat Index: 10°   Visibility: 10mi
Dew Point: -1°   Wind: 6mph
Humidity: 46%   Direction: 270°W
Pressure: 29.96"   Gusts: NA
Location:  43.21°N, 88.52°W
Report Text: KRYV 260255Z AUTO 27005KT 10SM CLR 10/M01 A2996 RMK AO2 T01001013
Loading
Personal Weather Stations






























Interactive Weather Map
Tropical Storm Tracking
New forecast layout! Learn more

10-Day Weather Forecast

Advertisements
Track Severe Weather on mobile